sensor_id;sensor_type;location;lat;lon;timestamp;P1;durP1;ratioP1;P2;durP2;ratioP2
22282;SDS011;11310;51.528;21.204;2023-06-14T00:00:46;10.10;;;2.97;;
22282;SDS011;11310;51.528;21.204;2023-06-14T00:03:16;7.47;;;2.72;;
22282;SDS011;11310;51.528;21.204;2023-06-14T00:05:49;6.70;;;2.58;;
22282;SDS011;11310;51.528;21.204;2023-06-14T00:08:18;8.82;;;3.03;;
22282;SDS011;11310;51.528;21.204;2023-06-14T00:10:48;10.18;;;2.88;;
22282;SDS011;11310;51.528;21.204;2023-06-14T00:13:19;7.03;;;2.83;;
22282;SDS011;11310;51.528;21.204;2023-06-14T00:15:48;4.72;;;2.75;;
22282;SDS011;11310;51.528;21.204;2023-06-14T00:18:16;5.55;;;2.72;;
22282;SDS011;11310;51.528;21.204;2023-06-14T00:20:46;6.60;;;2.83;;
22282;SDS011;11310;51.528;21.204;2023-06-14T00:23:15;7.85;;;3.28;;
22282;SDS011;11310;51.528;21.204;2023-06-14T00:25:44;5.45;;;2.97;;
22282;SDS011;11310;51.528;21.204;2023-06-14T00:28:14;7.50;;;3.08;;
22282;SDS011;11310;51.528;21.204;2023-06-14T00:30:45;8.27;;;3.35;;
22282;SDS011;11310;51.528;21.204;2023-06-14T00:33:14;6.20;;;3.13;;
22282;SDS011;11310;51.528;21.204;2023-06-14T00:35:49;6.78;;;3.15;;
22282;SDS011;11310;51.528;21.204;2023-06-14T00:38:19;6.55;;;2.85;;
22282;SDS011;11310;51.528;21.204;2023-06-14T00:40:50;6.80;;;3.13;;
22282;SDS011;11310;51.528;21.204;2023-06-14T00:43:23;5.35;;;2.97;;
22282;SDS011;11310;51.528;21.204;2023-06-14T00:45:54;6.40;;;2.53;;
22282;SDS011;11310;51.528;21.204;2023-06-14T00:48:27;5.43;;;2.92;;
22282;SDS011;11310;51.528;21.204;2023-06-14T00:50:59;5.70;;;3.00;;
22282;SDS011;11310;51.528;21.204;2023-06-14T00:53:34;7.97;;;3.50;;
22282;SDS011;11310;51.528;21.204;2023-06-14T00:56:03;5.05;;;3.00;;
22282;SDS011;11310;51.528;21.204;2023-06-14T00:58:33;7.20;;;3.38;;
22282;SDS011;11310;51.528;21.204;2023-06-14T01:01:03;5.97;;;3.20;;
22282;SDS011;11310;51.528;21.204;2023-06-14T01:06:05;6.38;;;3.00;;
22282;SDS011;11310;51.528;21.204;2023-06-14T01:08:51;9.18;;;3.40;;
22282;SDS011;11310;51.528;21.204;2023-06-14T01:11:31;6.00;;;2.72;;
22282;SDS011;11310;51.528;21.204;2023-06-14T01:14:08;9.25;;;3.03;;
22282;SDS011;11310;51.528;21.204;2023-06-14T01:16:41;5.78;;;2.75;;
22282;SDS011;11310;51.528;21.204;2023-06-14T01:19:13;7.50;;;3.30;;
22282;SDS011;11310;51.528;21.204;2023-06-14T01:21:46;6.57;;;2.88;;
22282;SDS011;11310;51.528;21.204;2023-06-14T01:27:30;5.53;;;2.83;;
22282;SDS011;11310;51.528;21.204;2023-06-14T01:30:50;8.65;;;3.13;;
22282;SDS011;11310;51.528;21.204;2023-06-14T01:33:20;9.30;;;3.10;;
22282;SDS011;11310;51.528;21.204;2023-06-14T01:35:52;6.35;;;3.00;;
22282;SDS011;11310;51.528;21.204;2023-06-14T01:38:23;5.75;;;3.15;;
22282;SDS011;11310;51.528;21.204;2023-06-14T01:40:55;6.45;;;2.90;;
22282;SDS011;11310;51.528;21.204;2023-06-14T01:43:37;6.85;;;2.97;;
22282;SDS011;11310;51.528;21.204;2023-06-14T01:46:08;7.78;;;3.05;;
22282;SDS011;11310;51.528;21.204;2023-06-14T01:48:38;7.78;;;3.25;;
22282;SDS011;11310;51.528;21.204;2023-06-14T01:51:07;6.30;;;3.22;;
22282;SDS011;11310;51.528;21.204;2023-06-14T01:53:38;8.45;;;3.28;;
22282;SDS011;11310;51.528;21.204;2023-06-14T01:56:11;8.52;;;3.40;;
22282;SDS011;11310;51.528;21.204;2023-06-14T01:58:40;7.53;;;3.70;;
22282;SDS011;11310;51.528;21.204;2023-06-14T02:01:09;7.30;;;3.10;;
22282;SDS011;11310;51.528;21.204;2023-06-14T02:03:40;7.75;;;3.47;;
22282;SDS011;11310;51.528;21.204;2023-06-14T02:06:09;6.20;;;2.88;;
22282;SDS011;11310;51.528;21.204;2023-06-14T02:08:39;5.47;;;2.92;;
22282;SDS011;11310;51.528;21.204;2023-06-14T02:11:08;8.13;;;3.20;;
22282;SDS011;11310;51.528;21.204;2023-06-14T02:13:38;6.78;;;3.05;;
22282;SDS011;11310;51.528;21.204;2023-06-14T02:16:07;5.90;;;3.00;;
22282;SDS011;11310;51.528;21.204;2023-06-14T02:18:38;6.30;;;3.15;;
22282;SDS011;11310;51.528;21.204;2023-06-14T02:21:07;9.25;;;3.35;;
22282;SDS011;11310;51.528;21.204;2023-06-14T02:23:37;8.68;;;3.78;;
22282;SDS011;11310;51.528;21.204;2023-06-14T02:26:06;6.72;;;3.38;;
22282;SDS011;11310;51.528;21.204;2023-06-14T02:28:35;6.32;;;3.17;;
22282;SDS011;11310;51.528;21.204;2023-06-14T02:31:09;8.60;;;3.67;;
22282;SDS011;11310;51.528;21.204;2023-06-14T02:33:38;6.43;;;3.33;;
22282;SDS011;11310;51.528;21.204;2023-06-14T02:36:10;6.30;;;3.05;;
22282;SDS011;11310;51.528;21.204;2023-06-14T02:38:39;7.30;;;3.38;;
22282;SDS011;11310;51.528;21.204;2023-06-14T02:41:08;7.57;;;3.17;;
22282;SDS011;11310;51.528;21.204;2023-06-14T02:43:37;7.53;;;3.42;;
22282;SDS011;11310;51.528;21.204;2023-06-14T02:46:10;6.50;;;3.38;;
22282;SDS011;11310;51.528;21.204;2023-06-14T02:48:39;5.20;;;3.10;;
22282;SDS011;11310;51.528;21.204;2023-06-14T02:51:09;6.68;;;3.58;;
22282;SDS011;11310;51.528;21.204;2023-06-14T02:53:37;7.03;;;3.08;;
22282;SDS011;11310;51.528;21.204;2023-06-14T02:56:08;6.32;;;3.25;;
22282;SDS011;11310;51.528;21.204;2023-06-14T02:58:37;6.80;;;3.30;;
22282;SDS011;11310;51.528;21.204;2023-06-14T03:01:07;8.63;;;3.75;;
22282;SDS011;11310;51.528;21.204;2023-06-14T03:03:41;6.18;;;2.92;;
22282;SDS011;11310;51.528;21.204;2023-06-14T03:06:10;7.30;;;3.58;;
22282;SDS011;11310;51.528;21.204;2023-06-14T03:08:43;5.47;;;3.03;;
22282;SDS011;11310;51.528;21.204;2023-06-14T03:11:15;6.95;;;3.58;;
22282;SDS011;11310;51.528;21.204;2023-06-14T03:13:49;6.63;;;3.30;;
22282;SDS011;11310;51.528;21.204;2023-06-14T03:16:22;5.60;;;3.03;;
22282;SDS011;11310;51.528;21.204;2023-06-14T03:18:54;8.57;;;3.13;;
22282;SDS011;11310;51.528;21.204;2023-06-14T03:21:25;7.63;;;3.72;;
22282;SDS011;11310;51.528;21.204;2023-06-14T03:24:00;7.50;;;3.50;;
22282;SDS011;11310;51.528;21.204;2023-06-14T03:26:35;6.07;;;3.20;;
22282;SDS011;11310;51.528;21.204;2023-06-14T03:29:05;7.15;;;3.25;;
22282;SDS011;11310;51.528;21.204;2023-06-14T03:31:34;9.05;;;3.38;;
22282;SDS011;11310;51.528;21.204;2023-06-14T03:34:07;7.65;;;3.28;;
22282;SDS011;11310;51.528;21.204;2023-06-14T03:36:38;7.15;;;3.42;;
22282;SDS011;11310;51.528;21.204;2023-06-14T03:39:07;6.65;;;3.22;;
22282;SDS011;11310;51.528;21.204;2023-06-14T03:41:36;5.90;;;3.20;;
22282;SDS011;11310;51.528;21.204;2023-06-14T03:44:06;6.60;;;3.60;;
22282;SDS011;11310;51.528;21.204;2023-06-14T03:46:35;6.75;;;3.33;;
22282;SDS011;11310;51.528;21.204;2023-06-14T03:49:04;8.35;;;3.50;;
22282;SDS011;11310;51.528;21.204;2023-06-14T03:51:36;5.60;;;3.07;;
22282;SDS011;11310;51.528;21.204;2023-06-14T03:54:07;7.88;;;3.25;;
22282;SDS011;11310;51.528;21.204;2023-06-14T03:56:56;8.00;;;3.30;;
22282;SDS011;11310;51.528;21.204;2023-06-14T03:59:26;6.72;;;3.70;;
22282;SDS011;11310;51.528;21.204;2023-06-14T04:01:56;5.90;;;3.22;;
22282;SDS011;11310;51.528;21.204;2023-06-14T04:04:25;7.55;;;3.50;;
22282;SDS011;11310;51.528;21.204;2023-06-14T04:06:59;5.72;;;3.03;;
22282;SDS011;11310;51.528;21.204;2023-06-14T04:09:30;7.47;;;3.58;;
22282;SDS011;11310;51.528;21.204;2023-06-14T04:12:00;7.80;;;3.90;;
22282;SDS011;11310;51.528;21.204;2023-06-14T04:17:00;5.03;;;3.08;;
22282;SDS011;11310;51.528;21.204;2023-06-14T04:19:31;8.52;;;3.20;;
22282;SDS011;11310;51.528;21.204;2023-06-14T04:22:02;10.70;;;3.53;;
22282;SDS011;11310;51.528;21.204;2023-06-14T04:24:34;7.65;;;3.40;;
22282;SDS011;11310;51.528;21.204;2023-06-14T04:27:04;5.95;;;3.30;;
22282;SDS011;11310;51.528;21.204;2023-06-14T04:32:11;10.07;;;3.10;;
22282;SDS011;11310;51.528;21.204;2023-06-14T04:34:41;5.10;;;2.83;;
22282;SDS011;11310;51.528;21.204;2023-06-14T04:37:16;6.40;;;2.75;;
22282;SDS011;11310;51.528;21.204;2023-06-14T04:39:46;8.43;;;3.45;;
22282;SDS011;11310;51.528;21.204;2023-06-14T04:42:15;7.47;;;3.10;;
22282;SDS011;11310;51.528;21.204;2023-06-14T04:44:44;7.70;;;3.55;;
22282;SDS011;11310;51.528;21.204;2023-06-14T04:47:14;8.23;;;3.33;;
22282;SDS011;11310;51.528;21.204;2023-06-14T04:49:43;8.82;;;3.22;;
22282;SDS011;11310;51.528;21.204;2023-06-14T04:52:14;6.90;;;3.22;;
22282;SDS011;11310;51.528;21.204;2023-06-14T04:54:47;6.30;;;3.40;;
22282;SDS011;11310;51.528;21.204;2023-06-14T04:59:51;6.53;;;3.10;;
22282;SDS011;11310;51.528;21.204;2023-06-14T05:02:25;7.80;;;3.53;;
22282;SDS011;11310;51.528;21.204;2023-06-14T05:04:59;7.35;;;3.10;;
22282;SDS011;11310;51.528;21.204;2023-06-14T05:07:37;7.32;;;3.30;;
22282;SDS011;11310;51.528;21.204;2023-06-14T05:10:09;5.05;;;2.58;;
22282;SDS011;11310;51.528;21.204;2023-06-14T05:12:40;9.07;;;3.45;;
22282;SDS011;11310;51.528;21.204;2023-06-14T05:15:12;6.28;;;3.20;;
22282;SDS011;11310;51.528;21.204;2023-06-14T05:17:45;5.85;;;3.08;;
22282;SDS011;11310;51.528;21.204;2023-06-14T05:20:20;7.18;;;3.40;;
22282;SDS011;11310;51.528;21.204;2023-06-14T05:22:54;5.75;;;2.95;;
22282;SDS011;11310;51.528;21.204;2023-06-14T05:27:52;7.68;;;3.30;;
22282;SDS011;11310;51.528;21.204;2023-06-14T05:30:23;8.88;;;3.33;;
22282;SDS011;11310;51.528;21.204;2023-06-14T05:32:53;8.55;;;3.33;;
22282;SDS011;11310;51.528;21.204;2023-06-14T05:35:22;8.13;;;3.25;;
22282;SDS011;11310;51.528;21.204;2023-06-14T05:37:55;6.43;;;3.00;;
22282;SDS011;11310;51.528;21.204;2023-06-14T05:40:23;10.15;;;3.70;;
22282;SDS011;11310;51.528;21.204;2023-06-14T05:42:52;7.20;;;2.90;;
22282;SDS011;11310;51.528;21.204;2023-06-14T05:45:22;6.90;;;3.00;;
22282;SDS011;11310;51.528;21.204;2023-06-14T05:47:51;8.30;;;3.17;;
22282;SDS011;11310;51.528;21.204;2023-06-14T05:50:21;6.43;;;3.05;;
22282;SDS011;11310;51.528;21.204;2023-06-14T05:52:55;4.95;;;2.95;;
22282;SDS011;11310;51.528;21.204;2023-06-14T05:55:24;6.28;;;3.08;;
22282;SDS011;11310;51.528;21.204;2023-06-14T05:57:53;5.55;;;3.17;;
22282;SDS011;11310;51.528;21.204;2023-06-14T06:00:22;7.82;;;3.22;;
22282;SDS011;11310;51.528;21.204;2023-06-14T06:02:54;6.90;;;3.25;;
22282;SDS011;11310;51.528;21.204;2023-06-14T06:05:25;5.95;;;3.13;;
22282;SDS011;11310;51.528;21.204;2023-06-14T06:07:59;8.07;;;3.30;;
22282;SDS011;11310;51.528;21.204;2023-06-14T06:10:29;10.45;;;3.38;;
22282;SDS011;11310;51.528;21.204;2023-06-14T06:13:04;5.72;;;3.08;;
22282;SDS011;11310;51.528;21.204;2023-06-14T06:15:35;6.90;;;3.28;;
22282;SDS011;11310;51.528;21.204;2023-06-14T06:18:04;6.25;;;3.42;;
22282;SDS011;11310;51.528;21.204;2023-06-14T06:20:36;8.30;;;3.50;;
22282;SDS011;11310;51.528;21.204;2023-06-14T06:23:06;5.22;;;2.97;;
22282;SDS011;11310;51.528;21.204;2023-06-14T06:25:36;5.90;;;3.03;;
22282;SDS011;11310;51.528;21.204;2023-06-14T06:28:05;6.28;;;3.17;;
22282;SDS011;11310;51.528;21.204;2023-06-14T06:30:33;6.00;;;3.13;;
22282;SDS011;11310;51.528;21.204;2023-06-14T06:33:02;5.25;;;3.15;;
22282;SDS011;11310;51.528;21.204;2023-06-14T06:35:32;7.85;;;3.05;;
22282;SDS011;11310;51.528;21.204;2023-06-14T06:38:01;7.07;;;2.88;;
22282;SDS011;11310;51.528;21.204;2023-06-14T06:40:34;6.40;;;2.83;;
22282;SDS011;11310;51.528;21.204;2023-06-14T06:43:03;6.70;;;3.17;;
22282;SDS011;11310;51.528;21.204;2023-06-14T06:45:40;4.88;;;2.60;;
22282;SDS011;11310;51.528;21.204;2023-06-14T06:48:10;7.90;;;3.30;;
22282;SDS011;11310;51.528;21.204;2023-06-14T06:50:39;4.65;;;2.67;;
22282;SDS011;11310;51.528;21.204;2023-06-14T06:53:08;6.88;;;2.88;;
22282;SDS011;11310;51.528;21.204;2023-06-14T06:55:39;5.72;;;3.20;;
22282;SDS011;11310;51.528;21.204;2023-06-14T06:58:11;6.50;;;2.85;;
22282;SDS011;11310;51.528;21.204;2023-06-14T07:00:40;7.05;;;3.22;;
22282;SDS011;11310;51.528;21.204;2023-06-14T07:03:10;8.65;;;3.00;;
22282;SDS011;11310;51.528;21.204;2023-06-14T07:05:39;6.40;;;3.10;;
22282;SDS011;11310;51.528;21.204;2023-06-14T07:08:08;7.38;;;2.88;;
22282;SDS011;11310;51.528;21.204;2023-06-14T07:10:39;5.55;;;2.92;;
22282;SDS011;11310;51.528;21.204;2023-06-14T07:15:38;5.63;;;2.83;;
22282;SDS011;11310;51.528;21.204;2023-06-14T07:18:08;7.38;;;3.13;;
22282;SDS011;11310;51.528;21.204;2023-06-14T07:20:43;5.60;;;2.80;;
22282;SDS011;11310;51.528;21.204;2023-06-14T07:23:15;5.25;;;2.58;;
22282;SDS011;11310;51.528;21.204;2023-06-14T07:25:45;9.85;;;3.00;;
22282;SDS011;11310;51.528;21.204;2023-06-14T07:28:17;7.80;;;2.72;;
22282;SDS011;11310;51.528;21.204;2023-06-14T07:30:46;6.75;;;2.92;;
22282;SDS011;11310;51.528;21.204;2023-06-14T07:33:15;7.85;;;3.08;;
22282;SDS011;11310;51.528;21.204;2023-06-14T07:35:44;6.00;;;2.65;;
22282;SDS011;11310;51.528;21.204;2023-06-14T07:38:13;6.47;;;3.05;;
22282;SDS011;11310;51.528;21.204;2023-06-14T07:40:42;9.23;;;3.25;;
22282;SDS011;11310;51.528;21.204;2023-06-14T07:43:12;7.72;;;3.17;;
22282;SDS011;11310;51.528;21.204;2023-06-14T07:45:44;8.70;;;3.10;;
22282;SDS011;11310;51.528;21.204;2023-06-14T07:48:32;10.82;;;3.33;;
22282;SDS011;11310;51.528;21.204;2023-06-14T07:51:02;5.15;;;2.67;;
22282;SDS011;11310;51.528;21.204;2023-06-14T07:53:34;6.22;;;2.92;;
22282;SDS011;11310;51.528;21.204;2023-06-14T07:56:03;5.60;;;2.60;;
22282;SDS011;11310;51.528;21.204;2023-06-14T07:58:35;9.10;;;3.08;;
22282;SDS011;11310;51.528;21.204;2023-06-14T08:01:04;6.97;;;3.53;;
22282;SDS011;11310;51.528;21.204;2023-06-14T08:03:35;6.97;;;2.90;;
22282;SDS011;11310;51.528;21.204;2023-06-14T08:06:04;5.85;;;2.63;;
22282;SDS011;11310;51.528;21.204;2023-06-14T08:11:04;8.35;;;2.88;;
22282;SDS011;11310;51.528;21.204;2023-06-14T08:13:35;7.93;;;2.75;;
22282;SDS011;11310;51.528;21.204;2023-06-14T08:16:04;6.70;;;2.88;;
22282;SDS011;11310;51.528;21.204;2023-06-14T08:18:35;6.75;;;3.25;;
22282;SDS011;11310;51.528;21.204;2023-06-14T08:21:06;8.73;;;3.15;;
22282;SDS011;11310;51.528;21.204;2023-06-14T08:23:35;7.07;;;2.83;;
22282;SDS011;11310;51.528;21.204;2023-06-14T08:26:04;5.57;;;2.78;;
22282;SDS011;11310;51.528;21.204;2023-06-14T08:28:35;5.32;;;2.83;;
22282;SDS011;11310;51.528;21.204;2023-06-14T08:31:04;7.20;;;3.10;;
22282;SDS011;11310;51.528;21.204;2023-06-14T08:33:37;6.40;;;2.63;;
22282;SDS011;11310;51.528;21.204;2023-06-14T08:36:11;5.97;;;3.03;;
22282;SDS011;11310;51.528;21.204;2023-06-14T08:38:40;10.77;;;3.08;;
22282;SDS011;11310;51.528;21.204;2023-06-14T08:41:11;8.52;;;3.30;;
22282;SDS011;11310;51.528;21.204;2023-06-14T08:43:47;8.10;;;3.08;;
22282;SDS011;11310;51.528;21.204;2023-06-14T08:46:17;5.75;;;3.00;;
22282;SDS011;11310;51.528;21.204;2023-06-14T08:48:51;8.18;;;2.97;;
22282;SDS011;11310;51.528;21.204;2023-06-14T08:51:25;6.57;;;3.22;;
22282;SDS011;11310;51.528;21.204;2023-06-14T08:54:02;9.07;;;3.05;;
22282;SDS011;11310;51.528;21.204;2023-06-14T08:56:32;5.63;;;3.00;;
22282;SDS011;11310;51.528;21.204;2023-06-14T08:59:05;5.13;;;2.92;;
22282;SDS011;11310;51.528;21.204;2023-06-14T09:01:36;9.23;;;3.10;;
22282;SDS011;11310;51.528;21.204;2023-06-14T09:04:05;5.60;;;2.80;;
22282;SDS011;11310;51.528;21.204;2023-06-14T09:06:37;6.65;;;3.05;;
22282;SDS011;11310;51.528;21.204;2023-06-14T09:09:05;6.97;;;3.25;;
22282;SDS011;11310;51.528;21.204;2023-06-14T09:11:34;6.70;;;2.78;;
22282;SDS011;11310;51.528;21.204;2023-06-14T09:14:05;7.53;;;3.22;;
22282;SDS011;11310;51.528;21.204;2023-06-14T09:16:34;7.38;;;2.78;;
22282;SDS011;11310;51.528;21.204;2023-06-14T09:19:03;14.70;;;3.25;;
22282;SDS011;11310;51.528;21.204;2023-06-14T09:21:33;6.72;;;3.22;;
22282;SDS011;11310;51.528;21.204;2023-06-14T09:24:05;5.75;;;3.00;;
22282;SDS011;11310;51.528;21.204;2023-06-14T09:26:35;7.72;;;2.85;;
22282;SDS011;11310;51.528;21.204;2023-06-14T09:29:13;6.72;;;2.92;;
22282;SDS011;11310;51.528;21.204;2023-06-14T09:31:46;5.43;;;2.83;;
22282;SDS011;11310;51.528;21.204;2023-06-14T09:34:17;10.30;;;3.17;;
22282;SDS011;11310;51.528;21.204;2023-06-14T09:36:52;7.68;;;2.72;;
22282;SDS011;11310;51.528;21.204;2023-06-14T09:39:22;6.88;;;3.33;;
22282;SDS011;11310;51.528;21.204;2023-06-14T09:41:52;8.55;;;2.80;;
22282;SDS011;11310;51.528;21.204;2023-06-14T09:44:25;5.55;;;2.80;;
22282;SDS011;11310;51.528;21.204;2023-06-14T09:46:57;7.18;;;2.75;;
22282;SDS011;11310;51.528;21.204;2023-06-14T09:49:26;6.18;;;2.80;;
22282;SDS011;11310;51.528;21.204;2023-06-14T09:51:59;8.25;;;2.78;;
22282;SDS011;11310;51.528;21.204;2023-06-14T09:54:28;5.70;;;2.60;;
22282;SDS011;11310;51.528;21.204;2023-06-14T09:56:59;6.20;;;3.10;;
22282;SDS011;11310;51.528;21.204;2023-06-14T09:59:30;5.28;;;2.85;;
22282;SDS011;11310;51.528;21.204;2023-06-14T10:02:05;9.90;;;3.00;;
22282;SDS011;11310;51.528;21.204;2023-06-14T10:04:40;5.40;;;3.03;;
22282;SDS011;11310;51.528;21.204;2023-06-14T10:07:16;7.60;;;3.08;;
22282;SDS011;11310;51.528;21.204;2023-06-14T10:09:47;10.38;;;2.72;;
22282;SDS011;11310;51.528;21.204;2023-06-14T10:12:17;6.40;;;2.50;;
22282;SDS011;11310;51.528;21.204;2023-06-14T10:14:50;7.60;;;3.05;;
22282;SDS011;11310;51.528;21.204;2023-06-14T10:17:26;6.57;;;3.33;;
22282;SDS011;11310;51.528;21.204;2023-06-14T10:22:56;6.53;;;2.78;;
22282;SDS011;11310;51.528;21.204;2023-06-14T10:25:30;6.82;;;3.08;;
22282;SDS011;11310;51.528;21.204;2023-06-14T10:28:05;6.82;;;3.22;;
22282;SDS011;11310;51.528;21.204;2023-06-14T10:33:36;5.72;;;2.70;;
22282;SDS011;11310;51.528;21.204;2023-06-14T10:36:24;5.57;;;2.75;;
22282;SDS011;11310;51.528;21.204;2023-06-14T10:39:03;5.50;;;2.50;;
22282;SDS011;11310;51.528;21.204;2023-06-14T10:41:36;6.00;;;2.80;;
22282;SDS011;11310;51.528;21.204;2023-06-14T10:47:10;4.82;;;2.38;;
22282;SDS011;11310;51.528;21.204;2023-06-14T10:49:52;8.20;;;3.00;;
22282;SDS011;11310;51.528;21.204;2023-06-14T10:52:26;10.45;;;3.05;;
22282;SDS011;11310;51.528;21.204;2023-06-14T10:55:04;6.63;;;2.85;;
22282;SDS011;11310;51.528;21.204;2023-06-14T10:57:39;6.53;;;2.53;;
22282;SDS011;11310;51.528;21.204;2023-06-14T11:00:13;13.13;;;2.97;;
22282;SDS011;11310;51.528;21.204;2023-06-14T11:06:14;5.30;;;2.45;;
22282;SDS011;11310;51.528;21.204;2023-06-14T11:11:50;5.55;;;2.15;;
22282;SDS011;11310;51.528;21.204;2023-06-14T11:14:25;6.18;;;2.40;;
22282;SDS011;11310;51.528;21.204;2023-06-14T11:17:01;7.75;;;2.33;;
22282;SDS011;11310;51.528;21.204;2023-06-14T11:19:34;5.68;;;2.67;;
22282;SDS011;11310;51.528;21.204;2023-06-14T11:22:08;5.20;;;1.92;;
22282;SDS011;11310;51.528;21.204;2023-06-14T11:24:37;6.18;;;2.80;;
22282;SDS011;11310;51.528;21.204;2023-06-14T11:27:09;4.88;;;2.58;;
22282;SDS011;11310;51.528;21.204;2023-06-14T11:29:38;5.68;;;2.60;;
22282;SDS011;11310;51.528;21.204;2023-06-14T11:32:18;6.20;;;2.20;;
22282;SDS011;11310;51.528;21.204;2023-06-14T11:34:47;6.30;;;2.38;;
22282;SDS011;11310;51.528;21.204;2023-06-14T11:37:22;3.95;;;2.05;;
22282;SDS011;11310;51.528;21.204;2023-06-14T11:39:55;4.68;;;2.33;;
22282;SDS011;11310;51.528;21.204;2023-06-14T11:42:26;5.35;;;2.17;;
22282;SDS011;11310;51.528;21.204;2023-06-14T11:44:56;5.90;;;2.40;;
22282;SDS011;11310;51.528;21.204;2023-06-14T11:47:41;4.32;;;2.08;;
22282;SDS011;11310;51.528;21.204;2023-06-14T11:50:10;5.32;;;2.42;;
22282;SDS011;11310;51.528;21.204;2023-06-14T11:52:40;5.80;;;3.00;;
22282;SDS011;11310;51.528;21.204;2023-06-14T11:55:09;6.13;;;2.63;;
22282;SDS011;11310;51.528;21.204;2023-06-14T11:57:38;8.52;;;2.60;;
22282;SDS011;11310;51.528;21.204;2023-06-14T12:00:07;6.18;;;2.33;;
22282;SDS011;11310;51.528;21.204;2023-06-14T12:02:39;7.15;;;2.47;;
22282;SDS011;11310;51.528;21.204;2023-06-14T12:05:08;5.93;;;2.17;;
22282;SDS011;11310;51.528;21.204;2023-06-14T12:07:38;6.38;;;2.30;;
22282;SDS011;11310;51.528;21.204;2023-06-14T12:10:11;4.45;;;2.55;;
22282;SDS011;11310;51.528;21.204;2023-06-14T12:12:43;6.28;;;2.20;;
22282;SDS011;11310;51.528;21.204;2023-06-14T12:15:31;7.25;;;2.05;;
22282;SDS011;11310;51.528;21.204;2023-06-14T12:18:00;7.32;;;2.42;;
22282;SDS011;11310;51.528;21.204;2023-06-14T12:20:30;6.45;;;2.17;;
22282;SDS011;11310;51.528;21.204;2023-06-14T12:25:33;5.15;;;1.88;;
22282;SDS011;11310;51.528;21.204;2023-06-14T12:28:09;4.75;;;2.03;;
22282;SDS011;11310;51.528;21.204;2023-06-14T12:33:50;5.57;;;2.20;;
22282;SDS011;11310;51.528;21.204;2023-06-14T12:36:19;4.50;;;1.95;;
22282;SDS011;11310;51.528;21.204;2023-06-14T12:39:03;3.95;;;2.00;;
22282;SDS011;11310;51.528;21.204;2023-06-14T12:41:35;6.38;;;2.20;;
22282;SDS011;11310;51.528;21.204;2023-06-14T12:44:06;2.60;;;1.70;;
22282;SDS011;11310;51.528;21.204;2023-06-14T12:46:36;9.80;;;2.20;;
22282;SDS011;11310;51.528;21.204;2023-06-14T12:49:08;5.07;;;2.00;;
22282;SDS011;11310;51.528;21.204;2023-06-14T12:51:39;3.28;;;1.92;;
22282;SDS011;11310;51.528;21.204;2023-06-14T12:54:11;6.13;;;1.92;;
22282;SDS011;11310;51.528;21.204;2023-06-14T12:57:09;10.35;;;2.42;;
22282;SDS011;11310;51.528;21.204;2023-06-14T12:59:42;4.03;;;1.90;;
22282;SDS011;11310;51.528;21.204;2023-06-14T13:02:12;2.65;;;1.60;;
22282;SDS011;11310;51.528;21.204;2023-06-14T13:04:42;4.45;;;1.75;;
22282;SDS011;11310;51.528;21.204;2023-06-14T13:07:11;3.92;;;1.83;;
22282;SDS011;11310;51.528;21.204;2023-06-14T13:09:41;3.53;;;1.92;;
22282;SDS011;11310;51.528;21.204;2023-06-14T13:12:12;4.05;;;1.98;;
22282;SDS011;11310;51.528;21.204;2023-06-14T13:14:41;5.55;;;1.70;;
22282;SDS011;11310;51.528;21.204;2023-06-14T13:17:12;8.65;;;1.80;;
22282;SDS011;11310;51.528;21.204;2023-06-14T13:19:43;4.47;;;1.80;;
22282;SDS011;11310;51.528;21.204;2023-06-14T13:22:12;2.38;;;1.40;;
22282;SDS011;11310;51.528;21.204;2023-06-14T13:24:41;6.22;;;1.77;;
22282;SDS011;11310;51.528;21.204;2023-06-14T13:27:13;3.65;;;1.70;;
22282;SDS011;11310;51.528;21.204;2023-06-14T13:29:44;3.83;;;1.63;;
22282;SDS011;11310;51.528;21.204;2023-06-14T13:32:14;3.78;;;1.75;;
22282;SDS011;11310;51.528;21.204;2023-06-14T13:34:43;6.30;;;1.90;;
22282;SDS011;11310;51.528;21.204;2023-06-14T13:37:12;5.88;;;2.00;;
22282;SDS011;11310;51.528;21.204;2023-06-14T13:39:43;5.50;;;2.05;;
22282;SDS011;11310;51.528;21.204;2023-06-14T13:42:13;4.05;;;2.25;;
22282;SDS011;11310;51.528;21.204;2023-06-14T13:44:43;4.95;;;2.25;;
22282;SDS011;11310;51.528;21.204;2023-06-14T13:47:12;4.88;;;2.28;;
22282;SDS011;11310;51.528;21.204;2023-06-14T13:49:41;6.25;;;2.30;;
22282;SDS011;11310;51.528;21.204;2023-06-14T13:52:12;6.85;;;2.70;;
22282;SDS011;11310;51.528;21.204;2023-06-14T13:54:41;6.75;;;2.22;;
22282;SDS011;11310;51.528;21.204;2023-06-14T13:57:14;17.77;;;2.30;;
22282;SDS011;11310;51.528;21.204;2023-06-14T13:59:43;4.90;;;2.35;;
22282;SDS011;11310;51.528;21.204;2023-06-14T14:02:13;3.97;;;2.15;;
22282;SDS011;11310;51.528;21.204;2023-06-14T14:04:42;6.82;;;2.30;;
22282;SDS011;11310;51.528;21.204;2023-06-14T14:07:11;3.63;;;2.03;;
22282;SDS011;11310;51.528;21.204;2023-06-14T14:09:40;4.55;;;2.40;;
22282;SDS011;11310;51.528;21.204;2023-06-14T14:12:10;7.57;;;2.83;;
22282;SDS011;11310;51.528;21.204;2023-06-14T14:14:40;9.05;;;2.47;;
22282;SDS011;11310;51.528;21.204;2023-06-14T14:17:09;6.13;;;2.65;;
22282;SDS011;11310;51.528;21.204;2023-06-14T14:19:38;5.25;;;2.60;;
22282;SDS011;11310;51.528;21.204;2023-06-14T14:22:07;5.43;;;2.75;;
22282;SDS011;11310;51.528;21.204;2023-06-14T14:24:36;4.78;;;2.55;;
22282;SDS011;11310;51.528;21.204;2023-06-14T14:27:07;6.72;;;2.95;;
22282;SDS011;11310;51.528;21.204;2023-06-14T14:29:37;5.45;;;2.70;;
22282;SDS011;11310;51.528;21.204;2023-06-14T14:32:08;4.88;;;2.53;;
22282;SDS011;11310;51.528;21.204;2023-06-14T14:34:41;7.20;;;2.55;;
22282;SDS011;11310;51.528;21.204;2023-06-14T14:37:10;4.35;;;2.63;;
22282;SDS011;11310;51.528;21.204;2023-06-14T14:39:43;6.43;;;3.22;;
22282;SDS011;11310;51.528;21.204;2023-06-14T14:42:13;5.50;;;2.67;;
22282;SDS011;11310;51.528;21.204;2023-06-14T14:44:41;6.97;;;3.13;;
22282;SDS011;11310;51.528;21.204;2023-06-14T14:47:13;7.40;;;2.72;;
22282;SDS011;11310;51.528;21.204;2023-06-14T14:49:42;7.25;;;2.78;;
22282;SDS011;11310;51.528;21.204;2023-06-14T14:52:14;8.27;;;2.83;;
22282;SDS011;11310;51.528;21.204;2023-06-14T14:54:50;5.32;;;2.60;;
22282;SDS011;11310;51.528;21.204;2023-06-14T14:57:20;8.23;;;2.92;;
22282;SDS011;11310;51.528;21.204;2023-06-14T14:59:50;8.45;;;2.72;;
22282;SDS011;11310;51.528;21.204;2023-06-14T15:02:24;8.02;;;2.97;;
22282;SDS011;11310;51.528;21.204;2023-06-14T15:04:53;7.47;;;2.72;;
22282;SDS011;11310;51.528;21.204;2023-06-14T15:07:24;7.70;;;2.70;;
22282;SDS011;11310;51.528;21.204;2023-06-14T15:09:54;5.78;;;2.90;;
22282;SDS011;11310;51.528;21.204;2023-06-14T15:12:23;6.35;;;3.17;;
22282;SDS011;11310;51.528;21.204;2023-06-14T15:14:56;7.00;;;3.08;;
22282;SDS011;11310;51.528;21.204;2023-06-14T15:17:26;7.22;;;3.55;;
22282;SDS011;11310;51.528;21.204;2023-06-14T15:19:56;5.50;;;3.25;;
22282;SDS011;11310;51.528;21.204;2023-06-14T15:22:25;5.65;;;3.45;;
22282;SDS011;11310;51.528;21.204;2023-06-14T15:24:55;6.53;;;3.10;;
22282;SDS011;11310;51.528;21.204;2023-06-14T15:27:24;8.35;;;3.45;;
22282;SDS011;11310;51.528;21.204;2023-06-14T15:29:52;10.35;;;3.45;;
22282;SDS011;11310;51.528;21.204;2023-06-14T15:32:21;8.80;;;3.10;;
22282;SDS011;11310;51.528;21.204;2023-06-14T15:34:55;9.15;;;3.67;;
22282;SDS011;11310;51.528;21.204;2023-06-14T15:37:23;6.63;;;3.33;;
22282;SDS011;11310;51.528;21.204;2023-06-14T15:39:55;8.20;;;3.35;;